sensor_id;sensor_type;location;lat;lon;timestamp;P1;durP1;ratioP1;P2;durP2;ratioP2
28481;SDS011;15703;49.588;6.260;2023-03-01T00:01:15;9.63;;;8.50;;
28481;SDS011;15703;49.588;6.260;2023-03-01T00:03:41;14.03;;;10.00;;
28481;SDS011;15703;49.588;6.260;2023-03-01T00:06:06;14.47;;;10.57;;
28481;SDS011;15703;49.588;6.260;2023-03-01T00:08:29;10.80;;;9.70;;
28481;SDS011;15703;49.588;6.260;2023-03-01T00:11:02;10.17;;;9.10;;
28481;SDS011;15703;49.588;6.260;2023-03-01T00:13:25;9.57;;;8.60;;
28481;SDS011;15703;49.588;6.260;2023-03-01T00:15:49;9.03;;;8.13;;
28481;SDS011;15703;49.588;6.260;2023-03-01T00:18:12;11.27;;;9.63;;
28481;SDS011;15703;49.588;6.260;2023-03-01T00:20:37;10.63;;;9.60;;
28481;SDS011;15703;49.588;6.260;2023-03-01T00:23:43;9.33;;;8.43;;
28481;SDS011;15703;49.588;6.260;2023-03-01T00:26:06;10.43;;;9.33;;
28481;SDS011;15703;49.588;6.260;2023-03-01T00:31:41;11.17;;;10.03;;
28481;SDS011;15703;49.588;6.260;2023-03-01T00:34:04;10.30;;;9.30;;
28481;SDS011;15703;49.588;6.260;2023-03-01T00:36:28;10.13;;;9.07;;
28481;SDS011;15703;49.588;6.260;2023-03-01T00:38:51;10.50;;;9.43;;
28481;SDS011;15703;49.588;6.260;2023-03-01T00:41:15;9.37;;;8.47;;
28481;SDS011;15703;49.588;6.260;2023-03-01T00:43:38;11.20;;;9.43;;
28481;SDS011;15703;49.588;6.260;2023-03-01T00:46:06;10.77;;;9.67;;
28481;SDS011;15703;49.588;6.260;2023-03-01T00:48:50;10.47;;;9.13;;
28481;SDS011;15703;49.588;6.260;2023-03-01T00:53:37;13.10;;;10.23;;
28481;SDS011;15703;49.588;6.260;2023-03-01T00:56:00;10.33;;;8.83;;
28481;SDS011;15703;49.588;6.260;2023-03-01T00:58:23;11.27;;;10.23;;
28481;SDS011;15703;49.588;6.260;2023-03-01T01:00:46;10.10;;;9.10;;
28481;SDS011;15703;49.588;6.260;2023-03-01T01:03:09;11.17;;;9.63;;
28481;SDS011;15703;49.588;6.260;2023-03-01T01:05:33;11.30;;;10.13;;
28481;SDS011;15703;49.588;6.260;2023-03-01T01:07:56;11.10;;;10.00;;
28481;SDS011;15703;49.588;6.260;2023-03-01T01:10:24;11.90;;;10.70;;
28481;SDS011;15703;49.588;6.260;2023-03-01T01:12:47;10.30;;;9.30;;
28481;SDS011;15703;49.588;6.260;2023-03-01T01:15:10;11.17;;;10.07;;
28481;SDS011;15703;49.588;6.260;2023-03-01T01:17:38;14.43;;;9.77;;
28481;SDS011;15703;49.588;6.260;2023-03-01T01:20:01;10.80;;;9.80;;
28481;SDS011;15703;49.588;6.260;2023-03-01T01:22:23;13.03;;;9.80;;
28481;SDS011;15703;49.588;6.260;2023-03-01T01:24:45;10.53;;;9.53;;
28481;SDS011;15703;49.588;6.260;2023-03-01T01:27:08;10.87;;;9.77;;
28481;SDS011;15703;49.588;6.260;2023-03-01T01:29:31;11.53;;;10.17;;
28481;SDS011;15703;49.588;6.260;2023-03-01T01:31:54;12.20;;;11.00;;
28481;SDS011;15703;49.588;6.260;2023-03-01T01:34:19;10.80;;;9.67;;
28481;SDS011;15703;49.588;6.260;2023-03-01T01:36:42;10.87;;;9.67;;
28481;SDS011;15703;49.588;6.260;2023-03-01T01:39:05;11.30;;;9.97;;
28481;SDS011;15703;49.588;6.260;2023-03-01T01:41:37;11.53;;;10.53;;
28481;SDS011;15703;49.588;6.260;2023-03-01T01:44:11;11.97;;;10.73;;
28481;SDS011;15703;49.588;6.260;2023-03-01T01:46:35;12.00;;;10.80;;
28481;SDS011;15703;49.588;6.260;2023-03-01T01:49:45;14.13;;;11.37;;
28481;SDS011;15703;49.588;6.260;2023-03-01T01:51:51;14.60;;;12.53;;
28481;SDS011;15703;49.588;6.260;2023-03-01T01:54:16;16.80;;;12.80;;
28481;SDS011;15703;49.588;6.260;2023-03-01T01:56:40;31.17;;;18.23;;
28481;SDS011;15703;49.588;6.260;2023-03-01T01:59:04;26.97;;;16.57;;
28481;SDS011;15703;49.588;6.260;2023-03-01T02:01:27;23.90;;;15.57;;
28481;SDS011;15703;49.588;6.260;2023-03-01T02:03:50;24.23;;;15.23;;
28481;SDS011;15703;49.588;6.260;2023-03-01T02:06:17;22.90;;;14.70;;
28481;SDS011;15703;49.588;6.260;2023-03-01T02:08:41;16.20;;;11.73;;
28481;SDS011;15703;49.588;6.260;2023-03-01T02:11:04;15.30;;;12.00;;
28481;SDS011;15703;49.588;6.260;2023-03-01T02:13:31;15.70;;;10.90;;
28481;SDS011;15703;49.588;6.260;2023-03-01T02:16:04;13.30;;;11.90;;
28481;SDS011;15703;49.588;6.260;2023-03-01T02:18:27;12.67;;;11.47;;
28481;SDS011;15703;49.588;6.260;2023-03-01T02:21:03;12.77;;;11.20;;
28481;SDS011;15703;49.588;6.260;2023-03-01T02:23:27;12.70;;;11.43;;
28481;SDS011;15703;49.588;6.260;2023-03-01T02:25:52;13.17;;;10.33;;
28481;SDS011;15703;49.588;6.260;2023-03-01T02:30:44;12.40;;;11.17;;
28481;SDS011;15703;49.588;6.260;2023-03-01T02:33:26;13.40;;;12.00;;
28481;SDS011;15703;49.588;6.260;2023-03-01T02:35:55;14.73;;;11.70;;
28481;SDS011;15703;49.588;6.260;2023-03-01T02:38:19;13.40;;;11.70;;
28481;SDS011;15703;49.588;6.260;2023-03-01T02:40:41;13.20;;;11.90;;
28481;SDS011;15703;49.588;6.260;2023-03-01T02:43:06;14.77;;;12.13;;
28481;SDS011;15703;49.588;6.260;2023-03-01T02:45:34;13.40;;;12.00;;
28481;SDS011;15703;49.588;6.260;2023-03-01T02:47:57;11.60;;;10.50;;
28481;SDS011;15703;49.588;6.260;2023-03-01T02:52:56;14.23;;;11.37;;
28481;SDS011;15703;49.588;6.260;2023-03-01T02:55:20;14.23;;;11.37;;
28481;SDS011;15703;49.588;6.260;2023-03-01T02:57:43;12.77;;;11.40;;
28481;SDS011;15703;49.588;6.260;2023-03-01T03:00:07;12.87;;;11.20;;
28481;SDS011;15703;49.588;6.260;2023-03-01T03:02:31;12.43;;;11.20;;
28481;SDS011;15703;49.588;6.260;2023-03-01T03:05:09;13.63;;;12.17;;
28481;SDS011;15703;49.588;6.260;2023-03-01T03:07:33;12.73;;;10.37;;
28481;SDS011;15703;49.588;6.260;2023-03-01T03:09:56;12.43;;;11.20;;
28481;SDS011;15703;49.588;6.260;2023-03-01T03:12:19;12.73;;;11.43;;
28481;SDS011;15703;49.588;6.260;2023-03-01T03:14:41;13.93;;;12.43;;
28481;SDS011;15703;49.588;6.260;2023-03-01T03:17:04;13.23;;;11.73;;
28481;SDS011;15703;49.588;6.260;2023-03-01T03:19:28;13.47;;;11.43;;
28481;SDS011;15703;49.588;6.260;2023-03-01T03:21:50;12.97;;;11.67;;
28481;SDS011;15703;49.588;6.260;2023-03-01T03:24:13;12.67;;;11.23;;
28481;SDS011;15703;49.588;6.260;2023-03-01T03:26:36;13.13;;;11.70;;
28481;SDS011;15703;49.588;6.260;2023-03-01T03:28:59;13.23;;;11.93;;
28481;SDS011;15703;49.588;6.260;2023-03-01T03:31:21;13.50;;;12.10;;
28481;SDS011;15703;49.588;6.260;2023-03-01T03:33:44;13.73;;;12.23;;
28481;SDS011;15703;49.588;6.260;2023-03-01T03:36:06;12.73;;;11.43;;
28481;SDS011;15703;49.588;6.260;2023-03-01T03:38:34;16.50;;;12.83;;
28481;SDS011;15703;49.588;6.260;2023-03-01T03:41:01;13.40;;;11.83;;
28481;SDS011;15703;49.588;6.260;2023-03-01T03:43:24;13.83;;;12.37;;
28481;SDS011;15703;49.588;6.260;2023-03-01T03:45:47;14.63;;;12.27;;
28481;SDS011;15703;49.588;6.260;2023-03-01T03:48:09;15.27;;;12.20;;
28481;SDS011;15703;49.588;6.260;2023-03-01T03:50:32;15.00;;;12.43;;
28481;SDS011;15703;49.588;6.260;2023-03-01T03:52:55;15.77;;;12.57;;
28481;SDS011;15703;49.588;6.260;2023-03-01T03:55:19;16.13;;;12.60;;
28481;SDS011;15703;49.588;6.260;2023-03-01T03:57:43;15.27;;;12.40;;
28481;SDS011;15703;49.588;6.260;2023-03-01T04:00:07;13.90;;;12.37;;
28481;SDS011;15703;49.588;6.260;2023-03-01T04:02:35;16.53;;;12.87;;
28481;SDS011;15703;49.588;6.260;2023-03-01T04:04:57;14.00;;;12.50;;
28481;SDS011;15703;49.588;6.260;2023-03-01T04:07:19;16.63;;;12.93;;
28481;SDS011;15703;49.588;6.260;2023-03-01T04:09:42;14.40;;;11.40;;
28481;SDS011;15703;49.588;6.260;2023-03-01T04:12:05;14.10;;;11.93;;
28481;SDS011;15703;49.588;6.260;2023-03-01T04:14:27;14.83;;;12.60;;
28481;SDS011;15703;49.588;6.260;2023-03-01T04:16:52;15.17;;;12.83;;
28481;SDS011;15703;49.588;6.260;2023-03-01T04:19:15;16.87;;;12.90;;
28481;SDS011;15703;49.588;6.260;2023-03-01T04:21:38;15.70;;;12.43;;
28481;SDS011;15703;49.588;6.260;2023-03-01T04:24:03;18.37;;;13.37;;
28481;SDS011;15703;49.588;6.260;2023-03-01T04:26:28;15.27;;;12.60;;
28481;SDS011;15703;49.588;6.260;2023-03-01T04:28:52;17.13;;;12.80;;
28481;SDS011;15703;49.588;6.260;2023-03-01T04:31:18;16.70;;;13.40;;
28481;SDS011;15703;49.588;6.260;2023-03-01T04:33:44;16.23;;;13.00;;
28481;SDS011;15703;49.588;6.260;2023-03-01T04:36:32;18.47;;;14.03;;
28481;SDS011;15703;49.588;6.260;2023-03-01T04:38:57;17.00;;;13.07;;
28481;SDS011;15703;49.588;6.260;2023-03-01T04:41:21;17.97;;;12.67;;
28481;SDS011;15703;49.588;6.260;2023-03-01T04:43:44;15.33;;;13.07;;
28481;SDS011;15703;49.588;6.260;2023-03-01T04:46:08;16.07;;;13.30;;
28481;SDS011;15703;49.588;6.260;2023-03-01T04:48:31;17.07;;;13.73;;
28481;SDS011;15703;49.588;6.260;2023-03-01T04:51:39;15.63;;;13.50;;
28481;SDS011;15703;49.588;6.260;2023-03-01T04:54:04;15.90;;;13.07;;
28481;SDS011;15703;49.588;6.260;2023-03-01T04:56:30;15.20;;;12.90;;
28481;SDS011;15703;49.588;6.260;2023-03-01T04:58:53;18.57;;;14.00;;
28481;SDS011;15703;49.588;6.260;2023-03-01T05:01:17;17.67;;;13.93;;
28481;SDS011;15703;49.588;6.260;2023-03-01T05:03:43;17.80;;;14.10;;
28481;SDS011;15703;49.588;6.260;2023-03-01T05:06:06;17.33;;;14.17;;
28481;SDS011;15703;49.588;6.260;2023-03-01T05:08:29;17.00;;;13.50;;
28481;SDS011;15703;49.588;6.260;2023-03-01T05:10:52;17.83;;;14.43;;
28481;SDS011;15703;49.588;6.260;2023-03-01T05:13:16;16.27;;;14.10;;
28481;SDS011;15703;49.588;6.260;2023-03-01T05:18:41;17.10;;;13.83;;
28481;SDS011;15703;49.588;6.260;2023-03-01T05:23:51;17.00;;;13.63;;
28481;SDS011;15703;49.588;6.260;2023-03-01T05:26:17;18.10;;;14.93;;
28481;SDS011;15703;49.588;6.260;2023-03-01T05:28:49;17.87;;;14.37;;
28481;SDS011;15703;49.588;6.260;2023-03-01T05:31:37;19.23;;;14.03;;
28481;SDS011;15703;49.588;6.260;2023-03-01T05:33:59;19.03;;;14.43;;
28481;SDS011;15703;49.588;6.260;2023-03-01T05:36:23;16.97;;;14.37;;
28481;SDS011;15703;49.588;6.260;2023-03-01T05:38:46;18.63;;;15.20;;
28481;SDS011;15703;49.588;6.260;2023-03-01T05:41:16;22.77;;;15.50;;
28481;SDS011;15703;49.588;6.260;2023-03-01T05:43:38;20.13;;;14.97;;
28481;SDS011;15703;49.588;6.260;2023-03-01T05:46:23;19.07;;;14.73;;
28481;SDS011;15703;49.588;6.260;2023-03-01T05:48:45;20.43;;;15.63;;
28481;SDS011;15703;49.588;6.260;2023-03-01T05:51:09;19.10;;;15.83;;
28481;SDS011;15703;49.588;6.260;2023-03-01T05:53:33;19.13;;;15.47;;
28481;SDS011;15703;49.588;6.260;2023-03-01T05:55:59;20.90;;;16.23;;
28481;SDS011;15703;49.588;6.260;2023-03-01T05:58:22;19.13;;;15.43;;
28481;SDS011;15703;49.588;6.260;2023-03-01T06:00:46;20.63;;;16.00;;
28481;SDS011;15703;49.588;6.260;2023-03-01T06:03:10;20.63;;;15.67;;
28481;SDS011;15703;49.588;6.260;2023-03-01T06:05:33;18.83;;;15.40;;
28481;SDS011;15703;49.588;6.260;2023-03-01T06:07:58;19.23;;;15.33;;
28481;SDS011;15703;49.588;6.260;2023-03-01T06:10:21;20.17;;;16.23;;
28481;SDS011;15703;49.588;6.260;2023-03-01T06:12:47;21.00;;;15.67;;
28481;SDS011;15703;49.588;6.260;2023-03-01T06:15:13;19.60;;;15.80;;
28481;SDS011;15703;49.588;6.260;2023-03-01T06:17:38;21.57;;;16.33;;
28481;SDS011;15703;49.588;6.260;2023-03-01T06:20:02;19.80;;;15.13;;
28481;SDS011;15703;49.588;6.260;2023-03-01T06:22:24;20.27;;;15.27;;
28481;SDS011;15703;49.588;6.260;2023-03-01T06:24:47;18.67;;;15.27;;
28481;SDS011;15703;49.588;6.260;2023-03-01T06:27:49;21.83;;;16.27;;
28481;SDS011;15703;49.588;6.260;2023-03-01T06:30:16;23.30;;;15.53;;
28481;SDS011;15703;49.588;6.260;2023-03-01T06:32:39;19.10;;;15.37;;
28481;SDS011;15703;49.588;6.260;2023-03-01T06:35:04;22.63;;;15.27;;
28481;SDS011;15703;49.588;6.260;2023-03-01T06:37:30;20.80;;;15.40;;
28481;SDS011;15703;49.588;6.260;2023-03-01T06:40:04;19.40;;;15.83;;
28481;SDS011;15703;49.588;6.260;2023-03-01T06:42:34;18.83;;;15.87;;
28481;SDS011;15703;49.588;6.260;2023-03-01T06:45:19;22.70;;;15.93;;
28481;SDS011;15703;49.588;6.260;2023-03-01T06:47:43;19.60;;;16.13;;
28481;SDS011;15703;49.588;6.260;2023-03-01T06:50:06;21.73;;;15.70;;
28481;SDS011;15703;49.588;6.260;2023-03-01T06:52:29;20.33;;;15.93;;
28481;SDS011;15703;49.588;6.260;2023-03-01T06:54:51;16.47;;;14.37;;
28481;SDS011;15703;49.588;6.260;2023-03-01T06:57:14;19.17;;;15.47;;
28481;SDS011;15703;49.588;6.260;2023-03-01T06:59:37;20.00;;;15.17;;
28481;SDS011;15703;49.588;6.260;2023-03-01T07:02:02;20.03;;;15.83;;
28481;SDS011;15703;49.588;6.260;2023-03-01T07:04:45;21.70;;;16.03;;
28481;SDS011;15703;49.588;6.260;2023-03-01T07:07:09;18.83;;;15.13;;
28481;SDS011;15703;49.588;6.260;2023-03-01T07:09:35;20.67;;;15.20;;
28481;SDS011;15703;49.588;6.260;2023-03-01T07:11:57;20.63;;;15.80;;
28481;SDS011;15703;49.588;6.260;2023-03-01T07:14:59;18.33;;;15.33;;
28481;SDS011;15703;49.588;6.260;2023-03-01T07:17:22;19.40;;;15.67;;
28481;SDS011;15703;49.588;6.260;2023-03-01T07:19:48;20.07;;;15.67;;
28481;SDS011;15703;49.588;6.260;2023-03-01T07:25:12;22.83;;;14.57;;
28481;SDS011;15703;49.588;6.260;2023-03-01T07:27:37;21.37;;;14.97;;
28481;SDS011;15703;49.588;6.260;2023-03-01T07:30:03;22.37;;;15.67;;
28481;SDS011;15703;49.588;6.260;2023-03-01T07:32:32;22.37;;;15.23;;
28481;SDS011;15703;49.588;6.260;2023-03-01T07:34:57;20.27;;;15.70;;
28481;SDS011;15703;49.588;6.260;2023-03-01T07:41:46;18.73;;;15.53;;
28481;SDS011;15703;49.588;6.260;2023-03-01T07:44:14;18.43;;;15.30;;
28481;SDS011;15703;49.588;6.260;2023-03-01T07:46:47;20.27;;;15.77;;
28481;SDS011;15703;49.588;6.260;2023-03-01T07:49:14;21.53;;;15.67;;
28481;SDS011;15703;49.588;6.260;2023-03-01T07:51:36;17.87;;;14.50;;
28481;SDS011;15703;49.588;6.260;2023-03-01T07:53:59;20.70;;;15.20;;
28481;SDS011;15703;49.588;6.260;2023-03-01T07:56:23;20.53;;;15.40;;
28481;SDS011;15703;49.588;6.260;2023-03-01T07:58:45;23.23;;;15.83;;
28481;SDS011;15703;49.588;6.260;2023-03-01T08:01:12;20.07;;;15.77;;
28481;SDS011;15703;49.588;6.260;2023-03-01T08:03:35;20.80;;;15.03;;
28481;SDS011;15703;49.588;6.260;2023-03-01T08:06:04;19.37;;;15.80;;
28481;SDS011;15703;49.588;6.260;2023-03-01T08:08:28;17.77;;;14.33;;
28481;SDS011;15703;49.588;6.260;2023-03-01T08:10:51;20.23;;;15.53;;
28481;SDS011;15703;49.588;6.260;2023-03-01T08:19:48;18.77;;;15.07;;
28481;SDS011;15703;49.588;6.260;2023-03-01T08:25:16;19.83;;;14.07;;
28481;SDS011;15703;49.588;6.260;2023-03-01T08:28:18;18.13;;;15.07;;
28481;SDS011;15703;49.588;6.260;2023-03-01T08:30:41;22.13;;;14.93;;
28481;SDS011;15703;49.588;6.260;2023-03-01T08:33:03;20.57;;;15.50;;
28481;SDS011;15703;49.588;6.260;2023-03-01T08:38:22;19.37;;;15.03;;
28481;SDS011;15703;49.588;6.260;2023-03-01T08:41:05;19.03;;;14.57;;
28481;SDS011;15703;49.588;6.260;2023-03-01T08:46:20;20.77;;;14.13;;
28481;SDS011;15703;49.588;6.260;2023-03-01T08:48:45;19.73;;;15.17;;
28481;SDS011;15703;49.588;6.260;2023-03-01T08:51:15;18.43;;;14.20;;
28481;SDS011;15703;49.588;6.260;2023-03-01T08:53:42;17.00;;;14.27;;
28481;SDS011;15703;49.588;6.260;2023-03-01T08:56:26;18.27;;;15.10;;
28481;SDS011;15703;49.588;6.260;2023-03-01T08:58:53;18.90;;;14.87;;
28481;SDS011;15703;49.588;6.260;2023-03-01T09:01:17;17.50;;;13.50;;
28481;SDS011;15703;49.588;6.260;2023-03-01T09:03:39;18.33;;;14.07;;
28481;SDS011;15703;49.588;6.260;2023-03-01T09:08:48;18.07;;;14.20;;
28481;SDS011;15703;49.588;6.260;2023-03-01T09:11:11;21.90;;;14.13;;
28481;SDS011;15703;49.588;6.260;2023-03-01T09:13:34;20.10;;;14.90;;
28481;SDS011;15703;49.588;6.260;2023-03-01T09:15:57;18.70;;;15.13;;
28481;SDS011;15703;49.588;6.260;2023-03-01T09:18:20;18.20;;;14.60;;
28481;SDS011;15703;49.588;6.260;2023-03-01T09:20:42;21.73;;;13.80;;
28481;SDS011;15703;49.588;6.260;2023-03-01T09:23:05;17.53;;;14.50;;
28481;SDS011;15703;49.588;6.260;2023-03-01T09:25:27;18.57;;;13.67;;
28481;SDS011;15703;49.588;6.260;2023-03-01T09:27:51;15.20;;;13.33;;
28481;SDS011;15703;49.588;6.260;2023-03-01T09:30:21;18.13;;;14.00;;
28481;SDS011;15703;49.588;6.260;2023-03-01T09:32:56;20.23;;;14.23;;
28481;SDS011;15703;49.588;6.260;2023-03-01T09:35:35;16.03;;;13.37;;
28481;SDS011;15703;49.588;6.260;2023-03-01T09:37:58;17.13;;;13.60;;
28481;SDS011;15703;49.588;6.260;2023-03-01T09:40:21;18.90;;;15.10;;
28481;SDS011;15703;49.588;6.260;2023-03-01T09:42:53;21.07;;;14.93;;
28481;SDS011;15703;49.588;6.260;2023-03-01T09:45:51;22.80;;;15.53;;
28481;SDS011;15703;49.588;6.260;2023-03-01T09:48:25;16.77;;;13.40;;
28481;SDS011;15703;49.588;6.260;2023-03-01T09:50:48;18.90;;;13.07;;
28481;SDS011;15703;49.588;6.260;2023-03-01T09:53:21;17.80;;;13.23;;
28481;SDS011;15703;49.588;6.260;2023-03-01T09:56:05;22.27;;;13.80;;
28481;SDS011;15703;49.588;6.260;2023-03-01T09:58:44;16.90;;;13.13;;
28481;SDS011;15703;49.588;6.260;2023-03-01T10:01:27;18.37;;;13.10;;
28481;SDS011;15703;49.588;6.260;2023-03-01T10:10:39;19.07;;;14.17;;
28481;SDS011;15703;49.588;6.260;2023-03-01T10:13:13;17.03;;;13.80;;
28481;SDS011;15703;49.588;6.260;2023-03-01T10:15:43;17.83;;;13.73;;
28481;SDS011;15703;49.588;6.260;2023-03-01T10:21:18;16.20;;;13.00;;
28481;SDS011;15703;49.588;6.260;2023-03-01T10:27:21;17.53;;;13.23;;
28481;SDS011;15703;49.588;6.260;2023-03-01T10:33:39;18.07;;;14.30;;
28481;SDS011;15703;49.588;6.260;2023-03-01T10:36:03;16.07;;;12.97;;
28481;SDS011;15703;49.588;6.260;2023-03-01T10:38:26;18.03;;;14.20;;
28481;SDS011;15703;49.588;6.260;2023-03-01T10:43:13;19.33;;;13.97;;
28481;SDS011;15703;49.588;6.260;2023-03-01T10:45:36;17.20;;;13.93;;
28481;SDS011;15703;49.588;6.260;2023-03-01T10:48:04;17.57;;;13.73;;
28481;SDS011;15703;49.588;6.260;2023-03-01T10:50:27;17.20;;;13.70;;
28481;SDS011;15703;49.588;6.260;2023-03-01T10:53:01;17.50;;;14.67;;
28481;SDS011;15703;49.588;6.260;2023-03-01T10:58:07;18.13;;;13.90;;
28481;SDS011;15703;49.588;6.260;2023-03-01T11:00:29;19.67;;;13.70;;
28481;SDS011;15703;49.588;6.260;2023-03-01T11:03:02;18.40;;;13.97;;
28481;SDS011;15703;49.588;6.260;2023-03-01T11:05:25;15.67;;;13.83;;
28481;SDS011;15703;49.588;6.260;2023-03-01T11:07:55;18.73;;;14.60;;
28481;SDS011;15703;49.588;6.260;2023-03-01T11:13:17;16.20;;;12.97;;
28481;SDS011;15703;49.588;6.260;2023-03-01T11:15:40;14.80;;;13.23;;
28481;SDS011;15703;49.588;6.260;2023-03-01T11:18:03;19.60;;;13.50;;
28481;SDS011;15703;49.588;6.260;2023-03-01T11:20:34;18.07;;;13.67;;
28481;SDS011;15703;49.588;6.260;2023-03-01T11:23:02;20.10;;;12.93;;
28481;SDS011;15703;49.588;6.260;2023-03-01T11:25:26;17.17;;;12.83;;
28481;SDS011;15703;49.588;6.260;2023-03-01T11:46:36;17.33;;;13.03;;
28481;SDS011;15703;49.588;6.260;2023-03-01T11:49:11;16.00;;;13.30;;
28481;SDS011;15703;49.588;6.260;2023-03-01T11:55:48;19.07;;;13.87;;
28481;SDS011;15703;49.588;6.260;2023-03-01T12:22:35;16.53;;;13.57;;
28481;SDS011;15703;49.588;6.260;2023-03-01T12:32:22;35.67;;;20.80;;
28481;SDS011;15703;49.588;6.260;2023-03-01T12:37:29;17.33;;;14.00;;
28481;SDS011;15703;49.588;6.260;2023-03-01T12:49:41;16.63;;;13.53;;
28481;SDS011;15703;49.588;6.260;2023-03-01T12:52:47;18.27;;;13.40;;
28481;SDS011;15703;49.588;6.260;2023-03-01T12:54:50;19.33;;;13.17;;
28481;SDS011;15703;49.588;6.260;2023-03-01T12:57:19;17.30;;;12.57;;
28481;SDS011;15703;49.588;6.260;2023-03-01T13:00:09;16.73;;;13.50;;
28481;SDS011;15703;49.588;6.260;2023-03-01T13:02:33;18.33;;;13.77;;
28481;SDS011;15703;49.588;6.260;2023-03-01T13:05:06;16.33;;;13.33;;
28481;SDS011;15703;49.588;6.260;2023-03-01T13:07:30;16.63;;;12.63;;
28481;SDS011;15703;49.588;6.260;2023-03-01T13:17:46;17.13;;;13.20;;
28481;SDS011;15703;49.588;6.260;2023-03-01T13:20:12;17.03;;;13.07;;
28481;SDS011;15703;49.588;6.260;2023-03-01T13:22:37;18.63;;;13.00;;
28481;SDS011;15703;49.588;6.260;2023-03-01T13:25:16;16.53;;;12.80;;
28481;SDS011;15703;49.588;6.260;2023-03-01T13:27:40;14.57;;;11.93;;
28481;SDS011;15703;49.588;6.260;2023-03-01T13:30:38;16.97;;;13.40;;
28481;SDS011;15703;49.588;6.260;2023-03-01T13:32:49;16.07;;;12.30;;
28481;SDS011;15703;49.588;6.260;2023-03-01T13:37:41;16.00;;;11.63;;
28481;SDS011;15703;49.588;6.260;2023-03-01T13:42:49;15.73;;;12.40;;
28481;SDS011;15703;49.588;6.260;2023-03-01T13:45:38;14.33;;;11.67;;
28481;SDS011;15703;49.588;6.260;2023-03-01T13:48:03;16.67;;;12.20;;
28481;SDS011;15703;49.588;6.260;2023-03-01T13:50:33;15.87;;;12.83;;
28481;SDS011;15703;49.588;6.260;2023-03-01T13:52:59;16.00;;;11.93;;
28481;SDS011;15703;49.588;6.260;2023-03-01T13:57:55;16.73;;;12.87;;
28481;SDS011;15703;49.588;6.260;2023-03-01T14:00:32;14.97;;;11.93;;
28481;SDS011;15703;49.588;6.260;2023-03-01T14:05:33;16.30;;;12.13;;
28481;SDS011;15703;49.588;6.260;2023-03-01T14:07:58;16.63;;;12.93;;
28481;SDS011;15703;49.588;6.260;2023-03-01T14:10:29;16.97;;;12.77;;
28481;SDS011;15703;49.588;6.260;2023-03-01T14:13:07;18.27;;;13.50;;
28481;SDS011;15703;49.588;6.260;2023-03-01T14:15:42;16.73;;;13.40;;
28481;SDS011;15703;49.588;6.260;2023-03-01T14:18:10;16.13;;;12.90;;
28481;SDS011;15703;49.588;6.260;2023-03-01T14:20:39;17.57;;;13.53;;
28481;SDS011;15703;49.588;6.260;2023-03-01T14:23:02;19.27;;;13.27;;
28481;SDS011;15703;49.588;6.260;2023-03-01T14:25:32;16.90;;;13.23;;
28481;SDS011;15703;49.588;6.260;2023-03-01T14:27:56;15.73;;;11.77;;
28481;SDS011;15703;49.588;6.260;2023-03-01T14:32:42;14.77;;;12.50;;
28481;SDS011;15703;49.588;6.260;2023-03-01T14:38:21;16.43;;;12.77;;
28481;SDS011;15703;49.588;6.260;2023-03-01T14:40:44;22.47;;;15.13;;
28481;SDS011;15703;49.588;6.260;2023-03-01T14:43:10;15.03;;;13.43;;
28481;SDS011;15703;49.588;6.260;2023-03-01T14:45:34;46.97;;;24.50;;
28481;SDS011;15703;49.588;6.260;2023-03-01T14:47:58;14.77;;;13.07;;
28481;SDS011;15703;49.588;6.260;2023-03-01T14:50:25;15.00;;;12.87;;
28481;SDS011;15703;49.588;6.260;2023-03-01T14:52:50;18.17;;;13.83;;
28481;SDS011;15703;49.588;6.260;2023-03-01T14:55:19;23.63;;;13.23;;
28481;SDS011;15703;49.588;6.260;2023-03-01T14:57:47;16.83;;;13.00;;
28481;SDS011;15703;49.588;6.260;2023-03-01T15:00:28;15.13;;;12.30;;
28481;SDS011;15703;49.588;6.260;2023-03-01T15:02:56;15.70;;;12.40;;
28481;SDS011;15703;49.588;6.260;2023-03-01T15:05:23;15.47;;;12.37;;
28481;SDS011;15703;49.588;6.260;2023-03-01T15:07:48;17.10;;;12.50;;
28481;SDS011;15703;49.588;6.260;2023-03-01T15:10:14;15.87;;;12.47;;
28481;SDS011;15703;49.588;6.260;2023-03-01T15:12:40;14.93;;;11.97;;
28481;SDS011;15703;49.588;6.260;2023-03-01T15:17:53;16.20;;;12.10;;
28481;SDS011;15703;49.588;6.260;2023-03-01T15:20:18;15.07;;;12.20;;
28481;SDS011;15703;49.588;6.260;2023-03-01T15:22:47;15.60;;;11.83;;
28481;SDS011;15703;49.588;6.260;2023-03-01T15:25:26;15.30;;;11.67;;
28481;SDS011;15703;49.588;6.260;2023-03-01T15:27:53;17.67;;;12.43;;
28481;SDS011;15703;49.588;6.260;2023-03-01T15:30:22;15.53;;;11.90;;
28481;SDS011;15703;49.588;6.260;2023-03-01T15:32:46;16.80;;;12.27;;
28481;SDS011;15703;49.588;6.260;2023-03-01T15:37:50;15.50;;;12.40;;
28481;SDS011;15703;49.588;6.260;2023-03-01T15:40:29;14.37;;;12.13;;
28481;SDS011;15703;49.588;6.260;2023-03-01T15:42:55;14.03;;;11.93;;
28481;SDS011;15703;49.588;6.260;2023-03-01T15:45:25;13.63;;;11.47;;
28481;SDS011;15703;49.588;6.260;2023-03-01T15:47:50;17.37;;;12.07;;
28481;SDS011;15703;49.588;6.260;2023-03-01T15:52:45;15.90;;;11.63;;
28481;SDS011;15703;49.588;6.260;2023-03-01T15:55:16;17.17;;;11.43;;
28481;SDS011;15703;49.588;6.260;2023-03-01T15:57:40;19.80;;;13.00;;
28481;SDS011;15703;49.588;6.260;2023-03-01T16:00:03;14.53;;;11.93;;
28481;SDS011;15703;49.588;6.260;2023-03-01T16:02:40;15.57;;;12.43;;
28481;SDS011;15703;49.588;6.260;2023-03-01T16:05:15;16.27;;;11.93;;
28481;SDS011;15703;49.588;6.260;2023-03-01T16:07:40;15.50;;;11.97;;
28481;SDS011;15703;49.588;6.260;2023-03-01T16:10:03;14.87;;;12.10;;
28481;SDS011;15703;49.588;6.260;2023-03-01T16:12:26;15.77;;;11.73;;
28481;SDS011;15703;49.588;6.260;2023-03-01T16:14:51;14.77;;;11.83;;
28481;SDS011;15703;49.588;6.260;2023-03-01T16:17:14;14.00;;;10.83;;
28481;SDS011;15703;49.588;6.260;2023-03-01T16:19:44;14.23;;;11.07;;
28481;SDS011;15703;49.588;6.260;2023-03-01T16:22:08;15.53;;;11.10;;
28481;SDS011;15703;49.588;6.260;2023-03-01T16:24:32;14.43;;;10.67;;
28481;SDS011;15703;49.588;6.260;2023-03-01T16:26:56;13.30;;;10.40;;
28481;SDS011;15703;49.588;6.260;2023-03-01T16:29:18;22.07;;;15.00;;
28481;SDS011;15703;49.588;6.260;2023-03-01T16:31:41;18.37;;;12.10;;
28481;SDS011;15703;49.588;6.260;2023-03-01T16:34:04;12.87;;;10.93;;
28481;SDS011;15703;49.588;6.260;2023-03-01T16:36:26;14.87;;;10.90;;
28481;SDS011;15703;49.588;6.260;2023-03-01T16:38:51;13.37;;;9.93;;
28481;SDS011;15703;49.588;6.260;2023-03-01T16:41:18;12.33;;;9.87;;
28481;SDS011;15703;49.588;6.260;2023-03-01T16:43:41;12.70;;;10.03;;
28481;SDS011;15703;49.588;6.260;2023-03-01T16:46:11;17.20;;;10.67;;
28481;SDS011;15703;49.588;6.260;2023-03-01T16:48:33;12.53;;;9.73;;
28481;SDS011;15703;49.588;6.260;2023-03-01T16:51:05;12.60;;;9.73;;
28481;SDS011;15703;49.588;6.260;2023-03-01T16:53:30;15.87;;;9.20;;
28481;SDS011;15703;49.588;6.260;2023-03-01T16:55:59;12.50;;;9.77;;
28481;SDS011;15703;49.588;6.260;2023-03-01T16:58:25;12.33;;;9.60;;
28481;SDS011;15703;49.588;6.260;2023-03-01T17:00:52;12.40;;;9.20;;
28481;SDS011;15703;49.588;6.260;2023-03-01T17:03:15;10.80;;;8.63;;
28481;SDS011;15703;49.588;6.260;2023-03-01T17:05:40;11.20;;;8.53;;
28481;SDS011;15703;49.588;6.260;2023-03-01T17:08:04;17.37;;;12.27;;